sensor_id;sensor_type;location;lat;lon;timestamp;P1;durP1;ratioP1;P2;durP2;ratioP2
12681;SDS011;6405;59.208;18.216;2024-02-15T00:01:40;30.10;;;7.07;;
12681;SDS011;6405;59.208;18.216;2024-02-15T00:04:07;26.37;;;7.03;;
12681;SDS011;6405;59.208;18.216;2024-02-15T00:06:33;24.40;;;6.10;;
12681;SDS011;6405;59.208;18.216;2024-02-15T00:08:58;27.03;;;6.07;;
12681;SDS011;6405;59.208;18.216;2024-02-15T00:11:24;17.60;;;6.10;;
12681;SDS011;6405;59.208;18.216;2024-02-15T00:13:50;24.10;;;6.57;;
12681;SDS011;6405;59.208;18.216;2024-02-15T00:16:15;21.20;;;6.10;;
12681;SDS011;6405;59.208;18.216;2024-02-15T00:18:41;42.87;;;7.73;;
12681;SDS011;6405;59.208;18.216;2024-02-15T00:21:07;33.13;;;6.73;;
12681;SDS011;6405;59.208;18.216;2024-02-15T00:23:33;29.07;;;6.57;;
12681;SDS011;6405;59.208;18.216;2024-02-15T00:25:58;15.83;;;5.77;;
12681;SDS011;6405;59.208;18.216;2024-02-15T00:28:24;22.83;;;6.43;;
12681;SDS011;6405;59.208;18.216;2024-02-15T00:30:52;18.07;;;6.67;;
12681;SDS011;6405;59.208;18.216;2024-02-15T00:33:18;16.63;;;6.10;;
12681;SDS011;6405;59.208;18.216;2024-02-15T00:35:43;22.37;;;6.20;;
12681;SDS011;6405;59.208;18.216;2024-02-15T00:38:09;38.87;;;7.23;;
12681;SDS011;6405;59.208;18.216;2024-02-15T00:40:35;12.60;;;5.47;;
12681;SDS011;6405;59.208;18.216;2024-02-15T00:43:01;26.47;;;6.43;;
12681;SDS011;6405;59.208;18.216;2024-02-15T00:45:26;26.07;;;5.87;;
12681;SDS011;6405;59.208;18.216;2024-02-15T00:47:52;23.87;;;6.10;;
12681;SDS011;6405;59.208;18.216;2024-02-15T00:50:19;17.33;;;6.37;;
12681;SDS011;6405;59.208;18.216;2024-02-15T00:52:45;22.07;;;6.13;;
12681;SDS011;6405;59.208;18.216;2024-02-15T00:55:10;17.63;;;6.83;;
12681;SDS011;6405;59.208;18.216;2024-02-15T00:57:36;18.33;;;5.90;;
12681;SDS011;6405;59.208;18.216;2024-02-15T01:00:02;14.03;;;5.17;;
12681;SDS011;6405;59.208;18.216;2024-02-15T01:02:31;14.30;;;5.53;;
12681;SDS011;6405;59.208;18.216;2024-02-15T01:04:57;49.20;;;8.60;;
12681;SDS011;6405;59.208;18.216;2024-02-15T01:07:24;26.47;;;6.20;;
12681;SDS011;6405;59.208;18.216;2024-02-15T01:09:53;26.60;;;6.10;;
12681;SDS011;6405;59.208;18.216;2024-02-15T01:12:19;18.37;;;5.27;;
12681;SDS011;6405;59.208;18.216;2024-02-15T01:14:45;18.40;;;5.80;;
12681;SDS011;6405;59.208;18.216;2024-02-15T01:17:11;31.90;;;6.17;;
12681;SDS011;6405;59.208;18.216;2024-02-15T01:19:37;41.63;;;6.13;;
12681;SDS011;6405;59.208;18.216;2024-02-15T01:22:03;20.20;;;5.07;;
12681;SDS011;6405;59.208;18.216;2024-02-15T01:24:28;27.17;;;5.53;;
12681;SDS011;6405;59.208;18.216;2024-02-15T01:26:55;33.20;;;6.40;;
12681;SDS011;6405;59.208;18.216;2024-02-15T01:29:21;10.63;;;4.50;;
12681;SDS011;6405;59.208;18.216;2024-02-15T01:31:46;16.00;;;5.20;;
12681;SDS011;6405;59.208;18.216;2024-02-15T01:34:12;54.53;;;7.27;;
12681;SDS011;6405;59.208;18.216;2024-02-15T01:36:38;19.07;;;4.93;;
12681;SDS011;6405;59.208;18.216;2024-02-15T01:39:04;19.93;;;4.77;;
12681;SDS011;6405;59.208;18.216;2024-02-15T01:41:29;24.40;;;5.00;;
12681;SDS011;6405;59.208;18.216;2024-02-15T01:43:55;17.50;;;4.23;;
12681;SDS011;6405;59.208;18.216;2024-02-15T01:46:20;14.27;;;4.70;;
12681;SDS011;6405;59.208;18.216;2024-02-15T01:48:47;18.23;;;4.37;;
12681;SDS011;6405;59.208;18.216;2024-02-15T01:51:13;17.33;;;4.07;;
12681;SDS011;6405;59.208;18.216;2024-02-15T01:53:41;13.27;;;3.77;;
12681;SDS011;6405;59.208;18.216;2024-02-15T01:56:07;10.87;;;4.47;;
12681;SDS011;6405;59.208;18.216;2024-02-15T01:58:34;12.37;;;4.00;;
12681;SDS011;6405;59.208;18.216;2024-02-15T02:01:01;30.43;;;4.97;;
12681;SDS011;6405;59.208;18.216;2024-02-15T02:03:27;17.70;;;4.07;;
12681;SDS011;6405;59.208;18.216;2024-02-15T02:05:53;15.17;;;3.70;;
12681;SDS011;6405;59.208;18.216;2024-02-15T02:08:18;7.90;;;3.30;;
12681;SDS011;6405;59.208;18.216;2024-02-15T02:10:44;18.10;;;3.70;;
12681;SDS011;6405;59.208;18.216;2024-02-15T02:13:11;13.63;;;3.67;;
12681;SDS011;6405;59.208;18.216;2024-02-15T02:15:37;19.03;;;3.53;;
12681;SDS011;6405;59.208;18.216;2024-02-15T02:18:03;19.70;;;4.93;;
12681;SDS011;6405;59.208;18.216;2024-02-15T02:20:34;25.10;;;4.50;;
12681;SDS011;6405;59.208;18.216;2024-02-15T02:23:18;8.83;;;3.47;;
12681;SDS011;6405;59.208;18.216;2024-02-15T02:25:49;10.70;;;3.87;;
12681;SDS011;6405;59.208;18.216;2024-02-15T02:28:15;14.40;;;3.60;;
12681;SDS011;6405;59.208;18.216;2024-02-15T02:30:44;12.67;;;4.50;;
12681;SDS011;6405;59.208;18.216;2024-02-15T02:33:13;13.83;;;3.80;;
12681;SDS011;6405;59.208;18.216;2024-02-15T02:35:47;13.67;;;3.60;;
12681;SDS011;6405;59.208;18.216;2024-02-15T02:38:13;7.13;;;3.47;;
12681;SDS011;6405;59.208;18.216;2024-02-15T02:40:40;7.20;;;3.13;;
12681;SDS011;6405;59.208;18.216;2024-02-15T02:43:06;7.03;;;3.33;;
12681;SDS011;6405;59.208;18.216;2024-02-15T02:45:32;12.17;;;3.93;;
12681;SDS011;6405;59.208;18.216;2024-02-15T02:47:58;6.93;;;3.40;;
12681;SDS011;6405;59.208;18.216;2024-02-15T02:50:23;8.73;;;3.33;;
12681;SDS011;6405;59.208;18.216;2024-02-15T02:52:49;7.40;;;3.50;;
12681;SDS011;6405;59.208;18.216;2024-02-15T02:55:15;5.00;;;3.10;;
12681;SDS011;6405;59.208;18.216;2024-02-15T02:57:41;6.40;;;3.57;;
12681;SDS011;6405;59.208;18.216;2024-02-15T03:00:10;5.10;;;2.73;;
12681;SDS011;6405;59.208;18.216;2024-02-15T03:02:40;5.57;;;3.60;;
12681;SDS011;6405;59.208;18.216;2024-02-15T03:05:06;5.00;;;3.37;;
12681;SDS011;6405;59.208;18.216;2024-02-15T03:07:33;4.83;;;3.10;;
12681;SDS011;6405;59.208;18.216;2024-02-15T03:10:03;4.67;;;3.10;;
12681;SDS011;6405;59.208;18.216;2024-02-15T03:12:29;6.37;;;3.60;;
12681;SDS011;6405;59.208;18.216;2024-02-15T03:14:56;5.57;;;3.20;;
12681;SDS011;6405;59.208;18.216;2024-02-15T03:17:24;6.07;;;3.33;;
12681;SDS011;6405;59.208;18.216;2024-02-15T03:19:51;7.57;;;3.63;;
12681;SDS011;6405;59.208;18.216;2024-02-15T03:22:16;4.97;;;3.57;;
12681;SDS011;6405;59.208;18.216;2024-02-15T03:24:42;6.37;;;3.17;;
12681;SDS011;6405;59.208;18.216;2024-02-15T03:27:08;5.30;;;3.13;;
12681;SDS011;6405;59.208;18.216;2024-02-15T03:29:37;5.30;;;3.10;;
12681;SDS011;6405;59.208;18.216;2024-02-15T03:32:03;4.40;;;2.80;;
12681;SDS011;6405;59.208;18.216;2024-02-15T03:34:30;5.97;;;3.37;;
12681;SDS011;6405;59.208;18.216;2024-02-15T03:36:56;5.03;;;2.70;;
12681;SDS011;6405;59.208;18.216;2024-02-15T03:39:22;5.97;;;2.97;;
12681;SDS011;6405;59.208;18.216;2024-02-15T03:41:49;7.67;;;3.53;;
12681;SDS011;6405;59.208;18.216;2024-02-15T03:44:16;5.40;;;3.33;;
12681;SDS011;6405;59.208;18.216;2024-02-15T03:46:43;8.60;;;3.60;;
12681;SDS011;6405;59.208;18.216;2024-02-15T03:49:16;12.07;;;3.40;;
12681;SDS011;6405;59.208;18.216;2024-02-15T03:51:42;15.43;;;3.40;;
12681;SDS011;6405;59.208;18.216;2024-02-15T03:54:10;22.33;;;3.80;;
12681;SDS011;6405;59.208;18.216;2024-02-15T03:56:36;13.53;;;3.67;;
12681;SDS011;6405;59.208;18.216;2024-02-15T03:59:02;6.63;;;3.07;;
12681;SDS011;6405;59.208;18.216;2024-02-15T04:01:30;8.30;;;3.43;;
12681;SDS011;6405;59.208;18.216;2024-02-15T04:04:00;15.90;;;3.30;;
12681;SDS011;6405;59.208;18.216;2024-02-15T04:06:27;7.57;;;3.13;;
12681;SDS011;6405;59.208;18.216;2024-02-15T04:08:56;5.20;;;2.93;;
12681;SDS011;6405;59.208;18.216;2024-02-15T04:11:21;8.20;;;3.00;;
12681;SDS011;6405;59.208;18.216;2024-02-15T04:13:47;6.80;;;3.07;;
12681;SDS011;6405;59.208;18.216;2024-02-15T04:16:13;15.80;;;3.30;;
12681;SDS011;6405;59.208;18.216;2024-02-15T04:18:38;14.57;;;3.27;;
12681;SDS011;6405;59.208;18.216;2024-02-15T04:21:04;9.20;;;3.43;;
12681;SDS011;6405;59.208;18.216;2024-02-15T04:23:32;11.27;;;3.47;;
12681;SDS011;6405;59.208;18.216;2024-02-15T04:25:58;17.80;;;3.80;;
12681;SDS011;6405;59.208;18.216;2024-02-15T04:28:25;40.93;;;3.97;;
12681;SDS011;6405;59.208;18.216;2024-02-15T04:30:50;20.97;;;6.00;;
12681;SDS011;6405;59.208;18.216;2024-02-15T04:33:16;23.03;;;4.20;;
12681;SDS011;6405;59.208;18.216;2024-02-15T04:35:42;18.07;;;2.97;;
12681;SDS011;6405;59.208;18.216;2024-02-15T04:38:09;18.97;;;3.43;;
12681;SDS011;6405;59.208;18.216;2024-02-15T04:40:34;30.47;;;3.77;;
12681;SDS011;6405;59.208;18.216;2024-02-15T04:43:02;29.13;;;5.60;;
12681;SDS011;6405;59.208;18.216;2024-02-15T04:45:29;46.13;;;6.30;;
12681;SDS011;6405;59.208;18.216;2024-02-15T04:47:56;31.70;;;4.10;;
12681;SDS011;6405;59.208;18.216;2024-02-15T04:50:22;21.53;;;3.57;;
12681;SDS011;6405;59.208;18.216;2024-02-15T04:52:48;30.50;;;4.43;;
12681;SDS011;6405;59.208;18.216;2024-02-15T04:55:14;18.10;;;5.20;;
12681;SDS011;6405;59.208;18.216;2024-02-15T04:57:42;13.77;;;3.80;;
12681;SDS011;6405;59.208;18.216;2024-02-15T05:00:08;17.67;;;3.97;;
12681;SDS011;6405;59.208;18.216;2024-02-15T05:02:35;30.70;;;4.33;;
12681;SDS011;6405;59.208;18.216;2024-02-15T05:05:06;17.27;;;3.63;;
12681;SDS011;6405;59.208;18.216;2024-02-15T05:07:34;23.70;;;4.30;;
12681;SDS011;6405;59.208;18.216;2024-02-15T05:10:04;13.77;;;3.40;;
12681;SDS011;6405;59.208;18.216;2024-02-15T05:12:32;21.30;;;4.70;;
12681;SDS011;6405;59.208;18.216;2024-02-15T05:14:59;31.20;;;4.13;;
12681;SDS011;6405;59.208;18.216;2024-02-15T05:17:25;50.07;;;4.80;;
12681;SDS011;6405;59.208;18.216;2024-02-15T05:19:53;53.87;;;5.10;;
12681;SDS011;6405;59.208;18.216;2024-02-15T05:22:19;28.03;;;4.07;;
12681;SDS011;6405;59.208;18.216;2024-02-15T05:24:45;39.63;;;4.63;;
12681;SDS011;6405;59.208;18.216;2024-02-15T05:27:10;34.23;;;4.53;;
12681;SDS011;6405;59.208;18.216;2024-02-15T05:29:37;23.97;;;6.17;;
12681;SDS011;6405;59.208;18.216;2024-02-15T05:32:04;32.97;;;5.53;;
12681;SDS011;6405;59.208;18.216;2024-02-15T05:34:30;42.17;;;5.93;;
12681;SDS011;6405;59.208;18.216;2024-02-15T05:36:56;32.27;;;8.50;;
12681;SDS011;6405;59.208;18.216;2024-02-15T05:39:22;17.20;;;3.83;;
12681;SDS011;6405;59.208;18.216;2024-02-15T05:41:48;14.67;;;3.93;;
12681;SDS011;6405;59.208;18.216;2024-02-15T05:44:14;27.63;;;4.73;;
12681;SDS011;6405;59.208;18.216;2024-02-15T05:46:44;56.30;;;9.37;;
12681;SDS011;6405;59.208;18.216;2024-02-15T05:49:10;14.63;;;4.07;;
12681;SDS011;6405;59.208;18.216;2024-02-15T05:51:40;14.90;;;3.60;;
12681;SDS011;6405;59.208;18.216;2024-02-15T05:54:06;14.90;;;3.80;;
12681;SDS011;6405;59.208;18.216;2024-02-15T05:56:32;10.70;;;3.00;;
12681;SDS011;6405;59.208;18.216;2024-02-15T05:58:58;22.03;;;6.37;;
12681;SDS011;6405;59.208;18.216;2024-02-15T06:01:24;16.63;;;3.20;;
12681;SDS011;6405;59.208;18.216;2024-02-15T06:03:50;11.00;;;3.50;;
12681;SDS011;6405;59.208;18.216;2024-02-15T06:06:19;37.77;;;5.83;;
12681;SDS011;6405;59.208;18.216;2024-02-15T06:08:46;28.87;;;4.60;;
12681;SDS011;6405;59.208;18.216;2024-02-15T06:11:12;23.63;;;5.17;;
12681;SDS011;6405;59.208;18.216;2024-02-15T06:13:39;32.33;;;5.10;;
12681;SDS011;6405;59.208;18.216;2024-02-15T06:16:06;34.03;;;5.27;;
12681;SDS011;6405;59.208;18.216;2024-02-15T06:18:34;22.93;;;4.20;;
12681;SDS011;6405;59.208;18.216;2024-02-15T06:21:00;21.93;;;4.27;;
12681;SDS011;6405;59.208;18.216;2024-02-15T06:23:27;23.67;;;4.43;;
12681;SDS011;6405;59.208;18.216;2024-02-15T06:25:54;19.00;;;4.53;;
12681;SDS011;6405;59.208;18.216;2024-02-15T06:28:24;47.33;;;6.50;;
12681;SDS011;6405;59.208;18.216;2024-02-15T06:31:09;18.33;;;4.63;;
12681;SDS011;6405;59.208;18.216;2024-02-15T06:33:54;46.37;;;5.87;;
12681;SDS011;6405;59.208;18.216;2024-02-15T06:36:46;21.63;;;4.97;;
12681;SDS011;6405;59.208;18.216;2024-02-15T06:39:35;10.77;;;4.70;;
12681;SDS011;6405;59.208;18.216;2024-02-15T06:42:11;46.40;;;5.43;;
12681;SDS011;6405;59.208;18.216;2024-02-15T06:44:43;24.37;;;4.47;;
12681;SDS011;6405;59.208;18.216;2024-02-15T06:47:09;25.87;;;5.07;;
12681;SDS011;6405;59.208;18.216;2024-02-15T06:49:38;32.40;;;8.13;;
12681;SDS011;6405;59.208;18.216;2024-02-15T06:52:08;22.93;;;6.40;;
12681;SDS011;6405;59.208;18.216;2024-02-15T06:54:35;62.53;;;11.97;;
12681;SDS011;6405;59.208;18.216;2024-02-15T06:57:03;46.93;;;7.30;;
12681;SDS011;6405;59.208;18.216;2024-02-15T06:59:29;36.63;;;7.40;;
12681;SDS011;6405;59.208;18.216;2024-02-15T07:01:57;42.57;;;7.57;;
12681;SDS011;6405;59.208;18.216;2024-02-15T07:04:27;39.03;;;8.00;;
12681;SDS011;6405;59.208;18.216;2024-02-15T07:06:53;65.33;;;10.40;;
12681;SDS011;6405;59.208;18.216;2024-02-15T07:09:22;103.50;;;14.53;;
12681;SDS011;6405;59.208;18.216;2024-02-15T07:11:49;55.37;;;9.93;;
12681;SDS011;6405;59.208;18.216;2024-02-15T07:14:15;85.97;;;11.30;;
12681;SDS011;6405;59.208;18.216;2024-02-15T07:16:47;68.77;;;13.77;;
12681;SDS011;6405;59.208;18.216;2024-02-15T07:19:14;56.97;;;8.33;;
12681;SDS011;6405;59.208;18.216;2024-02-15T07:21:40;142.07;;;17.03;;
12681;SDS011;6405;59.208;18.216;2024-02-15T07:24:06;73.07;;;11.77;;
12681;SDS011;6405;59.208;18.216;2024-02-15T07:26:34;101.63;;;16.10;;
12681;SDS011;6405;59.208;18.216;2024-02-15T07:29:01;78.73;;;13.80;;
12681;SDS011;6405;59.208;18.216;2024-02-15T07:31:31;86.83;;;13.70;;
12681;SDS011;6405;59.208;18.216;2024-02-15T07:33:58;43.03;;;11.27;;
12681;SDS011;6405;59.208;18.216;2024-02-15T07:36:24;51.87;;;10.97;;
12681;SDS011;6405;59.208;18.216;2024-02-15T07:38:51;47.03;;;9.43;;
12681;SDS011;6405;59.208;18.216;2024-02-15T07:41:18;47.27;;;11.13;;
12681;SDS011;6405;59.208;18.216;2024-02-15T07:43:47;55.33;;;10.83;;
12681;SDS011;6405;59.208;18.216;2024-02-15T07:46:16;36.67;;;10.10;;
12681;SDS011;6405;59.208;18.216;2024-02-15T07:48:45;39.20;;;10.40;;
12681;SDS011;6405;59.208;18.216;2024-02-15T07:51:14;77.43;;;14.43;;
12681;SDS011;6405;59.208;18.216;2024-02-15T07:53:41;62.33;;;11.83;;
12681;SDS011;6405;59.208;18.216;2024-02-15T07:56:08;82.23;;;13.77;;
12681;SDS011;6405;59.208;18.216;2024-02-15T07:58:37;66.57;;;11.67;;
12681;SDS011;6405;59.208;18.216;2024-02-15T08:01:04;68.10;;;11.33;;
12681;SDS011;6405;59.208;18.216;2024-02-15T08:03:30;43.70;;;9.00;;
12681;SDS011;6405;59.208;18.216;2024-02-15T08:05:56;30.57;;;7.73;;
12681;SDS011;6405;59.208;18.216;2024-02-15T08:08:22;40.23;;;9.40;;
12681;SDS011;6405;59.208;18.216;2024-02-15T08:10:47;45.77;;;11.10;;
12681;SDS011;6405;59.208;18.216;2024-02-15T08:13:16;67.20;;;11.57;;
12681;SDS011;6405;59.208;18.216;2024-02-15T08:15:43;48.43;;;9.63;;
12681;SDS011;6405;59.208;18.216;2024-02-15T08:18:09;20.33;;;9.07;;
12681;SDS011;6405;59.208;18.216;2024-02-15T08:20:37;23.90;;;8.03;;
12681;SDS011;6405;59.208;18.216;2024-02-15T08:23:05;31.03;;;8.93;;
12681;SDS011;6405;59.208;18.216;2024-02-15T08:25:31;32.97;;;8.40;;
12681;SDS011;6405;59.208;18.216;2024-02-15T08:27:57;33.00;;;10.50;;
12681;SDS011;6405;59.208;18.216;2024-02-15T08:30:23;29.40;;;8.27;;
12681;SDS011;6405;59.208;18.216;2024-02-15T08:32:48;21.93;;;8.67;;
12681;SDS011;6405;59.208;18.216;2024-02-15T08:35:15;21.07;;;8.43;;
12681;SDS011;6405;59.208;18.216;2024-02-15T08:37:41;34.50;;;8.53;;
12681;SDS011;6405;59.208;18.216;2024-02-15T08:40:08;32.00;;;8.57;;
12681;SDS011;6405;59.208;18.216;2024-02-15T08:42:44;32.40;;;8.87;;
12681;SDS011;6405;59.208;18.216;2024-02-15T08:45:11;22.80;;;7.80;;
12681;SDS011;6405;59.208;18.216;2024-02-15T08:47:38;24.37;;;8.17;;
12681;SDS011;6405;59.208;18.216;2024-02-15T08:50:04;25.00;;;9.20;;
12681;SDS011;6405;59.208;18.216;2024-02-15T08:52:31;33.53;;;8.87;;
12681;SDS011;6405;59.208;18.216;2024-02-15T08:54:57;24.40;;;8.33;;
12681;SDS011;6405;59.208;18.216;2024-02-15T08:57:24;15.47;;;7.30;;
12681;SDS011;6405;59.208;18.216;2024-02-15T08:59:51;20.30;;;7.83;;
12681;SDS011;6405;59.208;18.216;2024-02-15T09:02:20;16.53;;;6.60;;
12681;SDS011;6405;59.208;18.216;2024-02-15T09:04:46;13.53;;;6.97;;
12681;SDS011;6405;59.208;18.216;2024-02-15T09:07:11;16.37;;;6.73;;
12681;SDS011;6405;59.208;18.216;2024-02-15T09:09:37;17.10;;;7.33;;
12681;SDS011;6405;59.208;18.216;2024-02-15T09:12:03;9.83;;;6.10;;
12681;SDS011;6405;59.208;18.216;2024-02-15T09:14:32;10.87;;;6.50;;
12681;SDS011;6405;59.208;18.216;2024-02-15T09:16:59;14.80;;;6.70;;
12681;SDS011;6405;59.208;18.216;2024-02-15T09:19:25;13.80;;;6.93;;
12681;SDS011;6405;59.208;18.216;2024-02-15T09:21:51;15.40;;;7.07;;
12681;SDS011;6405;59.208;18.216;2024-02-15T09:24:16;16.53;;;6.90;;
12681;SDS011;6405;59.208;18.216;2024-02-15T09:26:42;23.20;;;7.10;;
12681;SDS011;6405;59.208;18.216;2024-02-15T09:29:09;16.40;;;6.93;;
12681;SDS011;6405;59.208;18.216;2024-02-15T09:31:35;19.27;;;6.40;;
12681;SDS011;6405;59.208;18.216;2024-02-15T09:34:01;11.97;;;7.47;;
12681;SDS011;6405;59.208;18.216;2024-02-15T09:36:34;10.80;;;6.00;;
12681;SDS011;6405;59.208;18.216;2024-02-15T09:39:03;17.23;;;6.63;;
12681;SDS011;6405;59.208;18.216;2024-02-15T09:41:29;13.93;;;6.17;;
12681;SDS011;6405;59.208;18.216;2024-02-15T09:43:57;14.33;;;7.63;;
12681;SDS011;6405;59.208;18.216;2024-02-15T09:46:23;33.03;;;8.17;;
12681;SDS011;6405;59.208;18.216;2024-02-15T09:48:51;14.37;;;6.37;;
12681;SDS011;6405;59.208;18.216;2024-02-15T09:51:27;14.17;;;7.03;;
12681;SDS011;6405;59.208;18.216;2024-02-15T09:53:56;8.67;;;5.87;;
12681;SDS011;6405;59.208;18.216;2024-02-15T09:56:23;10.40;;;6.67;;
12681;SDS011;6405;59.208;18.216;2024-02-15T09:58:51;16.13;;;7.53;;
12681;SDS011;6405;59.208;18.216;2024-02-15T10:01:17;13.93;;;6.77;;
12681;SDS011;6405;59.208;18.216;2024-02-15T10:03:47;13.70;;;7.00;;
12681;SDS011;6405;59.208;18.216;2024-02-15T10:06:16;14.20;;;6.97;;
12681;SDS011;6405;59.208;18.216;2024-02-15T10:08:43;13.37;;;7.43;;
12681;SDS011;6405;59.208;18.216;2024-02-15T10:11:09;13.77;;;6.97;;
12681;SDS011;6405;59.208;18.216;2024-02-15T10:13:35;26.10;;;7.37;;
12681;SDS011;6405;59.208;18.216;2024-02-15T10:16:20;17.83;;;7.80;;
12681;SDS011;6405;59.208;18.216;2024-02-15T10:18:50;14.37;;;7.80;;
12681;SDS011;6405;59.208;18.216;2024-02-15T10:21:25;16.77;;;7.57;;
12681;SDS011;6405;59.208;18.216;2024-02-15T10:24:03;17.27;;;8.23;;
12681;SDS011;6405;59.208;18.216;2024-02-15T10:26:33;23.10;;;7.33;;
12681;SDS011;6405;59.208;18.216;2024-02-15T10:29:09;32.10;;;9.07;;
12681;SDS011;6405;59.208;18.216;2024-02-15T10:31:40;22.60;;;8.80;;
12681;SDS011;6405;59.208;18.216;2024-02-15T10:34:17;30.43;;;8.43;;
12681;SDS011;6405;59.208;18.216;2024-02-15T10:36:44;20.27;;;8.17;;
12681;SDS011;6405;59.208;18.216;2024-02-15T10:39:14;26.43;;;8.70;;
12681;SDS011;6405;59.208;18.216;2024-02-15T10:41:49;21.07;;;8.53;;
12681;SDS011;6405;59.208;18.216;2024-02-15T10:44:17;35.10;;;10.93;;
12681;SDS011;6405;59.208;18.216;2024-02-15T10:46:47;20.20;;;7.83;;
12681;SDS011;6405;59.208;18.216;2024-02-15T10:49:20;34.37;;;9.37;;
12681;SDS011;6405;59.208;18.216;2024-02-15T10:52:04;25.83;;;7.90;;
12681;SDS011;6405;59.208;18.216;2024-02-15T10:57:08;32.97;;;9.07;;
12681;SDS011;6405;59.208;18.216;2024-02-15T10:59:35;25.90;;;8.97;;
12681;SDS011;6405;59.208;18.216;2024-02-15T11:04:52;30.83;;;8.40;;
12681;SDS011;6405;59.208;18.216;2024-02-15T11:07:23;22.10;;;9.60;;
12681;SDS011;6405;59.208;18.216;2024-02-15T11:09:50;12.00;;;7.13;;
12681;SDS011;6405;59.208;18.216;2024-02-15T11:12:16;12.83;;;7.33;;
12681;SDS011;6405;59.208;18.216;2024-02-15T11:14:45;12.97;;;6.97;;
12681;SDS011;6405;59.208;18.216;2024-02-15T11:17:11;14.10;;;8.07;;
12681;SDS011;6405;59.208;18.216;2024-02-15T11:23:02;11.63;;;6.20;;
12681;SDS011;6405;59.208;18.216;2024-02-15T11:25:38;11.20;;;7.30;;
12681;SDS011;6405;59.208;18.216;2024-02-15T11:30:52;16.20;;;7.83;;
12681;SDS011;6405;59.208;18.216;2024-02-15T11:33:28;11.17;;;7.07;;
12681;SDS011;6405;59.208;18.216;2024-02-15T11:38:32;13.43;;;7.30;;
12681;SDS011;6405;59.208;18.216;2024-02-15T11:41:08;13.13;;;7.57;;
12681;SDS011;6405;59.208;18.216;2024-02-15T11:46:26;9.83;;;6.97;;
12681;SDS011;6405;59.208;18.216;2024-02-15T11:48:57;9.90;;;6.00;;
12681;SDS011;6405;59.208;18.216;2024-02-15T11:56:32;12.37;;;6.77;;
12681;SDS011;6405;59.208;18.216;2024-02-15T11:59:16;12.97;;;7.50;;
12681;SDS011;6405;59.208;18.216;2024-02-15T12:01:55;13.90;;;7.07;;
12681;SDS011;6405;59.208;18.216;2024-02-15T12:04:40;18.63;;;7.77;;
12681;SDS011;6405;59.208;18.216;2024-02-15T12:07:24;14.23;;;7.50;;
12681;SDS011;6405;59.208;18.216;2024-02-15T12:10:18;18.50;;;7.93;;
12681;SDS011;6405;59.208;18.216;2024-02-15T12:13:02;9.47;;;6.17;;
12681;SDS011;6405;59.208;18.216;2024-02-15T12:15:59;12.37;;;7.07;;
12681;SDS011;6405;59.208;18.216;2024-02-15T12:18:44;15.33;;;7.57;;
12681;SDS011;6405;59.208;18.216;2024-02-15T12:21:18;12.70;;;7.53;;
12681;SDS011;6405;59.208;18.216;2024-02-15T12:23:50;9.53;;;6.53;;
12681;SDS011;6405;59.208;18.216;2024-02-15T12:26:20;11.43;;;6.87;;
12681;SDS011;6405;59.208;18.216;2024-02-15T12:28:52;9.53;;;6.20;;
12681;SDS011;6405;59.208;18.216;2024-02-15T12:31:20;10.73;;;6.77;;
12681;SDS011;6405;59.208;18.216;2024-02-15T12:33:46;10.50;;;6.67;;
12681;SDS011;6405;59.208;18.216;2024-02-15T12:36:13;16.73;;;7.20;;
12681;SDS011;6405;59.208;18.216;2024-02-15T12:38:39;11.40;;;6.53;;
12681;SDS011;6405;59.208;18.216;2024-02-15T12:41:20;13.33;;;7.30;;
12681;SDS011;6405;59.208;18.216;2024-02-15T12:43:46;19.97;;;7.03;;
12681;SDS011;6405;59.208;18.216;2024-02-15T12:46:18;11.90;;;6.70;;
12681;SDS011;6405;59.208;18.216;2024-02-15T12:48:44;12.40;;;6.50;;
12681;SDS011;6405;59.208;18.216;2024-02-15T12:51:14;28.70;;;7.93;;
12681;SDS011;6405;59.208;18.216;2024-02-15T12:53:40;15.67;;;6.83;;
12681;SDS011;6405;59.208;18.216;2024-02-15T12:56:09;17.30;;;7.73;;
12681;SDS011;6405;59.208;18.216;2024-02-15T12:58:35;20.13;;;7.60;;
12681;SDS011;6405;59.208;18.216;2024-02-15T13:01:01;14.87;;;7.37;;
12681;SDS011;6405;59.208;18.216;2024-02-15T13:03:27;37.20;;;8.37;;
12681;SDS011;6405;59.208;18.216;2024-02-15T13:05:53;16.87;;;7.17;;
12681;SDS011;6405;59.208;18.216;2024-02-15T13:08:18;23.27;;;8.30;;
12681;SDS011;6405;59.208;18.216;2024-02-15T13:10:45;24.40;;;8.80;;
12681;SDS011;6405;59.208;18.216;2024-02-15T13:13:12;14.80;;;7.30;;
12681;SDS011;6405;59.208;18.216;2024-02-15T13:15:41;16.40;;;7.47;;
12681;SDS011;6405;59.208;18.216;2024-02-15T13:18:07;14.67;;;7.03;;
12681;SDS011;6405;59.208;18.216;2024-02-15T13:20:36;14.67;;;7.03;;
12681;SDS011;6405;59.208;18.216;2024-02-15T13:25:33;21.60;;;8.60;;
12681;SDS011;6405;59.208;18.216;2024-02-15T13:28:04;20.07;;;8.10;;
12681;SDS011;6405;59.208;18.216;2024-02-15T13:30:30;19.17;;;7.37;;
12681;SDS011;6405;59.208;18.216;2024-02-15T13:32:57;18.60;;;7.43;;
12681;SDS011;6405;59.208;18.216;2024-02-15T13:35:22;40.50;;;10.60;;
12681;SDS011;6405;59.208;18.216;2024-02-15T13:37:52;18.73;;;7.23;;
12681;SDS011;6405;59.208;18.216;2024-02-15T13:40:19;11.20;;;6.20;;
12681;SDS011;6405;59.208;18.216;2024-02-15T13:42:49;22.37;;;7.00;;
12681;SDS011;6405;59.208;18.216;2024-02-15T13:45:21;19.67;;;8.90;;
12681;SDS011;6405;59.208;18.216;2024-02-15T13:47:48;22.47;;;6.70;;
12681;SDS011;6405;59.208;18.216;2024-02-15T13:50:18;17.07;;;7.23;;
12681;SDS011;6405;59.208;18.216;2024-02-15T13:52:44;20.97;;;9.20;;
12681;SDS011;6405;59.208;18.216;2024-02-15T13:55:11;19.67;;;6.77;;
12681;SDS011;6405;59.208;18.216;2024-02-15T13:57:38;25.37;;;6.93;;
12681;SDS011;6405;59.208;18.216;2024-02-15T14:00:09;28.50;;;8.13;;
12681;SDS011;6405;59.208;18.216;2024-02-15T14:05:18;28.40;;;8.57;;
12681;SDS011;6405;59.208;18.216;2024-02-15T14:07:52;24.23;;;7.40;;
12681;SDS011;6405;59.208;18.216;2024-02-15T14:10:24;19.50;;;6.70;;
12681;SDS011;6405;59.208;18.216;2024-02-15T14:12:52;27.03;;;8.17;;
12681;SDS011;6405;59.208;18.216;2024-02-15T14:15:33;43.73;;;8.67;;
12681;SDS011;6405;59.208;18.216;2024-02-15T14:18:02;16.67;;;7.13;;
12681;SDS011;6405;59.208;18.216;2024-02-15T14:20:35;22.87;;;7.17;;
12681;SDS011;6405;59.208;18.216;2024-02-15T14:23:02;31.43;;;8.10;;
12681;SDS011;6405;59.208;18.216;2024-02-15T14:25:31;25.43;;;6.80;;
12681;SDS011;6405;59.208;18.216;2024-02-15T14:27:57;32.90;;;7.30;;
12681;SDS011;6405;59.208;18.216;2024-02-15T14:30:24;17.07;;;6.97;;
12681;SDS011;6405;59.208;18.216;2024-02-15T14:33:08;24.33;;;7.77;;
12681;SDS011;6405;59.208;18.216;2024-02-15T14:35:39;39.73;;;9.33;;
12681;SDS011;6405;59.208;18.216;2024-02-15T14:38:05;46.27;;;8.27;;
12681;SDS011;6405;59.208;18.216;2024-02-15T14:40:35;40.93;;;9.03;;
12681;SDS011;6405;59.208;18.216;2024-02-15T14:43:05;19.83;;;7.20;;
12681;SDS011;6405;59.208;18.216;2024-02-15T14:45:39;17.13;;;7.77;;
12681;SDS011;6405;59.208;18.216;2024-02-15T14:48:08;26.87;;;10.13;;
12681;SDS011;6405;59.208;18.216;2024-02-15T14:50:35;30.47;;;9.73;;
12681;SDS011;6405;59.208;18.216;2024-02-15T14:53:01;29.70;;;9.67;;
12681;SDS011;6405;59.208;18.216;2024-02-15T14:55:27;37.50;;;10.27;;
12681;SDS011;6405;59.208;18.216;2024-02-15T14:57:56;37.17;;;9.47;;
12681;SDS011;6405;59.208;18.216;2024-02-15T15:00:23;78.63;;;11.00;;
12681;SDS011;6405;59.208;18.216;2024-02-15T15:02:51;23.83;;;7.10;;
12681;SDS011;6405;59.208;18.216;2024-02-15T15:05:18;56.43;;;10.37;;
12681;SDS011;6405;59.208;18.216;2024-02-15T15:08:02;51.60;;;9.27;;
12681;SDS011;6405;59.208;18.216;2024-02-15T15:10:47;54.53;;;10.43;;